createdAt,value
2022-10-01T00:00:28.519Z,1001.53
2022-10-01T00:01:28.521Z,1001.54
2022-10-01T00:02:28.480Z,1001.56
2022-10-01T00:03:28.411Z,1001.52
2022-10-01T00:04:28.380Z,1001.58
2022-10-01T00:05:28.325Z,1001.51
2022-10-01T00:06:28.280Z,1001.55
2022-10-01T00:07:28.248Z,1001.57
2022-10-01T00:08:28.202Z,1001.55
2022-10-01T00:09:28.160Z,1001.54
2022-10-01T00:10:28.133Z,1001.55
2022-10-01T00:11:28.086Z,1001.57
2022-10-01T00:12:28.040Z,1001.58
2022-10-01T00:13:28.011Z,1001.58
2022-10-01T00:14:27.960Z,1001.58
2022-10-01T00:15:27.920Z,1001.60
2022-10-01T00:16:27.947Z,1001.54
2022-10-01T00:17:27.843Z,1001.55
2022-10-01T00:18:27.802Z,1001.54
2022-10-01T00:19:27.769Z,1001.51
2022-10-01T00:20:27.720Z,1001.53
2022-10-01T00:21:27.688Z,1001.46
2022-10-01T00:22:27.660Z,1001.48
2022-10-01T00:23:27.607Z,1001.48
2022-10-01T00:24:27.561Z,1001.45
2022-10-01T00:25:27.521Z,1001.42
2022-10-01T00:26:27.483Z,1001.43
2022-10-01T00:27:27.456Z,1001.43
2022-10-01T00:28:27.496Z,1001.43
2022-10-01T00:29:27.373Z,1001.42
2022-10-01T00:30:27.322Z,1001.38
2022-10-01T00:31:27.314Z,1001.35
2022-10-01T00:32:27.243Z,1001.35
2022-10-01T00:33:27.200Z,1001.38
2022-10-01T00:34:27.174Z,1001.33
2022-10-01T00:35:27.124Z,1001.30
2022-10-01T00:36:27.078Z,1001.27
2022-10-01T00:37:27.044Z,1001.25
2022-10-01T00:38:27.004Z,1001.24
2022-10-01T00:39:26.959Z,1001.18
2022-10-01T00:40:26.930Z,1001.20
2022-10-01T00:41:26.879Z,1001.14
2022-10-01T00:42:26.843Z,1001.13
2022-10-01T00:43:26.799Z,1001.07
2022-10-01T00:44:26.757Z,1001.08
2022-10-01T00:45:26.741Z,1001.07
2022-10-01T00:46:26.686Z,1000.97
2022-10-01T00:47:26.653Z,1001.02
2022-10-01T00:48:26.592Z,1000.93
2022-10-01T00:49:26.618Z,1000.92
2022-10-01T00:50:26.523Z,1000.85
2022-10-01T00:51:26.474Z,1000.83
2022-10-01T00:52:26.431Z,1000.82
2022-10-01T00:53:26.405Z,1000.74
2022-10-01T00:54:26.360Z,1000.70
2022-10-01T00:55:26.312Z,1000.65
2022-10-01T00:56:26.268Z,1000.63
2022-10-01T00:57:26.232Z,1000.62
2022-10-01T00:58:26.197Z,1000.60
2022-10-01T00:59:26.158Z,1000.56
2022-10-01T01:00:26.118Z,1000.59
2022-10-01T01:01:26.111Z,1000.58
2022-10-01T01:02:26.054Z,1000.53
2022-10-01T01:03:26.006Z,1000.63
2022-10-01T01:04:25.942Z,1000.47
2022-10-01T01:05:25.924Z,1000.48
2022-10-01T01:06:25.869Z,1000.46
2022-10-01T01:07:25.824Z,1000.46
2022-10-01T01:08:25.780Z,1000.45
2022-10-01T01:09:25.745Z,1000.52
2022-10-01T01:10:25.706Z,1000.48
2022-10-01T01:11:25.669Z,1000.46
2022-10-01T01:12:25.631Z,1000.47
2022-10-01T01:13:25.579Z,1000.37
2022-10-01T01:14:25.551Z,1000.39
2022-10-01T01:15:25.512Z,1000.43
2022-10-01T01:16:25.453Z,1000.40
2022-10-01T01:17:25.414Z,1000.38
2022-10-01T01:18:25.382Z,1000.39
2022-10-01T01:19:25.332Z,1000.36
2022-10-01T01:20:25.304Z,1000.40
2022-10-01T01:21:25.252Z,1000.30
2022-10-01T01:22:25.205Z,1000.28
2022-10-01T01:23:25.177Z,1000.32
2022-10-01T01:24:25.151Z,1000.18
2022-10-01T01:25:25.087Z,1000.18
2022-10-01T01:26:25.045Z,1000.15
2022-10-01T01:27:25.010Z,1000.24
2022-10-01T01:28:25.016Z,1000.13
2022-10-01T01:29:24.936Z,1000.10
2022-10-01T01:30:24.882Z,1000.04
2022-10-01T01:31:24.912Z,1000.03
2022-10-01T01:32:24.803Z,1000.02
2022-10-01T01:33:24.764Z,999.97
2022-10-01T01:34:24.718Z,999.91
2022-10-01T01:35:24.695Z,999.85
2022-10-01T01:36:24.649Z,999.75
2022-10-01T01:37:24.601Z,999.87
2022-10-01T01:38:24.566Z,999.75
2022-10-01T01:39:24.515Z,999.69
2022-10-01T01:40:24.473Z,999.55
2022-10-01T01:41:24.436Z,999.62
2022-10-01T01:42:24.398Z,999.56
2022-10-01T01:43:24.353Z,999.54
2022-10-01T01:44:24.314Z,999.57
2022-10-01T01:45:24.272Z,999.37
2022-10-01T01:46:24.231Z,999.36
2022-10-01T01:47:24.187Z,999.32
2022-10-01T01:48:24.154Z,999.25
2022-10-01T01:49:24.103Z,999.19
2022-10-01T01:50:24.066Z,999.20
2022-10-01T01:51:24.021Z,999.10
2022-10-01T01:52:23.985Z,998.97
2022-10-01T01:53:23.943Z,999.07
2022-10-01T01:54:23.911Z,999.08
2022-10-01T01:55:33.327Z,999.01
2022-10-01T01:56:23.819Z,999.08
2022-10-01T01:57:23.785Z,999.08
2022-10-01T01:58:23.738Z,999.05
2022-10-01T01:59:23.692Z,999.13
2022-10-01T02:00:23.666Z,999.17
2022-10-01T02:01:23.636Z,999.12
2022-10-01T02:02:23.648Z,999.13
2022-10-01T02:03:23.527Z,999.23
2022-10-01T02:04:23.488Z,999.18
2022-10-01T02:05:23.461Z,999.30
2022-10-01T02:06:23.416Z,999.16
2022-10-01T02:07:23.366Z,999.15
2022-10-01T02:08:23.326Z,999.15
2022-10-01T02:09:23.283Z,999.14
2022-10-01T02:10:23.253Z,999.17
2022-10-01T02:11:23.201Z,999.15
2022-10-01T02:12:23.159Z,999.21
2022-10-01T02:13:23.118Z,999.18
2022-10-01T02:14:23.075Z,999.27
2022-10-01T02:15:23.039Z,999.33
2022-10-01T02:16:23.022Z,999.31
2022-10-01T02:17:22.954Z,999.20
2022-10-01T02:18:22.911Z,999.22
2022-10-01T02:19:22.884Z,999.29
2022-10-01T02:20:22.831Z,999.35
2022-10-01T02:21:22.790Z,999.35
2022-10-01T02:22:22.747Z,999.36
2022-10-01T02:23:22.711Z,999.43
2022-10-01T02:24:22.672Z,999.39
2022-10-01T02:25:22.638Z,999.45
2022-10-01T02:26:22.584Z,999.40
2022-10-01T02:27:22.546Z,999.46
2022-10-01T02:28:22.553Z,999.40
2022-10-01T02:29:24.316Z,999.41
2022-10-01T02:30:23.944Z,999.38
2022-10-01T02:31:22.430Z,999.40
2022-10-01T02:32:22.339Z,999.38
2022-10-01T02:33:22.298Z,999.43
2022-10-01T02:34:22.271Z,999.42
2022-10-01T02:35:22.216Z,999.46
2022-10-01T02:36:22.293Z,999.46
2022-10-01T02:37:22.134Z,999.37
2022-10-01T02:38:23.274Z,999.49
2022-10-01T02:39:22.050Z,999.50
2022-10-01T02:40:22.012Z,999.40
2022-10-01T02:41:22.838Z,999.42
2022-10-01T02:42:21.941Z,999.38
2022-10-01T02:43:21.887Z,999.33
2022-10-01T02:44:21.847Z,999.30
2022-10-01T02:45:21.807Z,999.26
2022-10-01T02:46:21.878Z,999.31
2022-10-01T02:47:21.725Z,999.28
2022-10-01T02:48:21.692Z,999.17
2022-10-01T02:49:21.642Z,999.16
2022-10-01T02:50:21.600Z,999.21
2022-10-01T02:51:21.561Z,999.12
2022-10-01T02:52:21.525Z,998.98
2022-10-01T02:53:21.488Z,998.80
2022-10-01T02:54:21.440Z,998.68
2022-10-01T02:55:21.396Z,998.61
2022-10-01T02:56:21.355Z,998.70
2022-10-01T02:57:21.314Z,998.74
2022-10-01T02:58:21.288Z,998.74
2022-10-01T02:59:21.242Z,998.82
2022-10-01T03:00:21.201Z,998.84
2022-10-01T03:01:21.175Z,998.84
2022-10-01T03:02:21.206Z,998.91
2022-10-01T03:03:21.069Z,998.92
2022-10-01T03:04:21.042Z,998.96
2022-10-01T03:05:20.986Z,998.98
2022-10-01T03:06:20.944Z,998.91
2022-10-01T03:07:20.902Z,998.91
2022-10-01T03:08:20.863Z,998.92
2022-10-01T03:09:20.824Z,998.78
2022-10-01T03:10:20.792Z,998.61
2022-10-01T03:11:20.749Z,998.49
2022-10-01T03:12:20.705Z,998.52
2022-10-01T03:13:20.659Z,998.48
2022-10-01T03:14:20.617Z,998.44
2022-10-01T03:15:20.575Z,998.45
2022-10-01T03:16:20.747Z,998.44
2022-10-01T03:17:20.492Z,998.43
2022-10-01T03:18:20.458Z,998.41
2022-10-01T03:19:20.410Z,998.49
2022-10-01T03:20:20.371Z,998.46
2022-10-01T03:21:20.329Z,998.50
2022-10-01T03:22:20.302Z,998.43
2022-10-01T03:23:20.248Z,998.58
2022-10-01T03:24:20.207Z,998.51
2022-10-01T03:25:20.170Z,998.46
2022-10-01T03:26:20.127Z,998.40
2022-10-01T03:27:20.085Z,998.39
2022-10-01T03:28:20.129Z,998.37
2022-10-01T03:29:20.010Z,998.45
2022-10-01T03:30:19.970Z,998.39
2022-10-01T03:31:19.987Z,998.39
2022-10-01T03:32:19.995Z,998.48
2022-10-01T03:33:19.834Z,998.33
2022-10-01T03:34:19.811Z,998.31
2022-10-01T03:35:20.358Z,998.20
2022-10-01T03:36:19.790Z,998.19
2022-10-01T03:37:19.674Z,998.20
2022-10-01T03:38:20.358Z,998.27
2022-10-01T03:39:19.595Z,998.03
2022-10-01T03:40:19.574Z,997.90
2022-10-01T03:41:19.510Z,997.88
2022-10-01T03:42:20.421Z,997.94
2022-10-01T03:43:19.442Z,998.05
2022-10-01T03:44:19.385Z,998.03
2022-10-01T03:45:19.409Z,998.00
2022-10-01T03:46:19.310Z,997.91
2022-10-01T03:47:19.264Z,997.89
2022-10-01T03:48:19.324Z,997.86
2022-10-01T03:49:19.430Z,997.90
2022-10-01T03:50:19.230Z,997.84
2022-10-01T03:51:20.047Z,997.72
2022-10-01T03:52:19.083Z,997.76
2022-10-01T03:53:19.024Z,997.73
2022-10-01T03:54:18.976Z,997.72
2022-10-01T03:55:18.941Z,997.66
2022-10-01T03:56:18.896Z,997.80
2022-10-01T03:57:18.853Z,997.75
2022-10-01T03:58:18.830Z,997.79
2022-10-01T03:59:18.788Z,997.91
2022-10-01T04:00:18.730Z,997.85
2022-10-01T04:01:18.754Z,997.75
2022-10-01T04:02:18.764Z,997.78
2022-10-01T04:03:18.610Z,997.87
2022-10-01T04:04:18.577Z,997.72
2022-10-01T04:05:18.537Z,997.68
2022-10-01T04:06:18.486Z,997.81
2022-10-01T04:07:18.449Z,997.77
2022-10-01T04:08:23.457Z,997.82
2022-10-01T04:09:18.364Z,997.85
2022-10-01T04:10:19.160Z,997.85
2022-10-01T04:11:18.284Z,997.84
2022-10-01T04:12:18.250Z,997.80
2022-10-01T04:13:18.200Z,997.89
2022-10-01T04:14:18.158Z,997.84
2022-10-01T04:15:18.118Z,997.86
2022-10-01T04:16:18.113Z,997.83
2022-10-01T04:17:18.047Z,997.83
2022-10-01T04:18:17.992Z,997.82
2022-10-01T04:19:17.951Z,997.75
2022-10-01T04:20:17.915Z,997.71
2022-10-01T04:21:17.874Z,997.90
2022-10-01T04:22:17.830Z,997.99
2022-10-01T04:23:17.801Z,998.02
2022-10-01T04:24:17.752Z,997.93
2022-10-01T04:25:17.707Z,997.81
2022-10-01T04:26:17.669Z,997.76
2022-10-01T04:27:17.626Z,997.89
2022-10-01T04:28:17.633Z,997.95
2022-10-01T04:29:17.557Z,997.80
2022-10-01T04:30:17.503Z,997.72
2022-10-01T04:31:17.582Z,997.67
2022-10-01T04:32:17.423Z,997.66
2022-10-01T04:33:17.380Z,997.69
2022-10-01T04:34:17.339Z,997.64
2022-10-01T04:35:17.311Z,997.71
2022-10-01T04:36:17.258Z,997.82
2022-10-01T04:37:17.216Z,997.85
2022-10-01T04:38:17.173Z,998.00
2022-10-01T04:39:17.133Z,997.97
2022-10-01T04:40:17.097Z,998.04
2022-10-01T04:41:17.063Z,997.90
2022-10-01T04:42:17.015Z,997.93
2022-10-01T04:43:16.970Z,997.94
2022-10-01T04:44:16.933Z,997.98
2022-10-01T04:45:16.890Z,997.92
2022-10-01T04:46:16.898Z,997.84
2022-10-01T04:47:16.820Z,997.76
2022-10-01T04:48:16.770Z,997.75
2022-10-01T04:49:16.728Z,997.75
2022-10-01T04:50:16.686Z,997.82
2022-10-01T04:51:16.660Z,997.85
2022-10-01T04:52:16.606Z,997.80
2022-10-01T04:53:16.563Z,997.78
2022-10-01T04:54:16.539Z,997.79
2022-10-01T04:55:16.485Z,997.71
2022-10-01T04:56:17.312Z,997.70
2022-10-01T04:57:16.400Z,997.74
2022-10-01T04:58:16.361Z,997.68
2022-10-01T04:59:16.328Z,997.62
2022-10-01T05:00:16.279Z,997.61
2022-10-01T05:01:16.389Z,997.54
2022-10-01T05:02:16.226Z,997.51
2022-10-01T05:03:16.156Z,997.45
2022-10-01T05:04:16.117Z,997.42
2022-10-01T05:05:16.086Z,997.50
2022-10-01T05:06:16.033Z,997.47
2022-10-01T05:07:15.992Z,997.39
2022-10-01T05:08:15.955Z,997.40
2022-10-01T05:09:15.911Z,997.46
2022-10-01T05:10:15.881Z,997.41
2022-10-01T05:11:15.840Z,997.49
2022-10-01T05:12:15.790Z,997.49
2022-10-01T05:13:15.749Z,997.48
2022-10-01T05:14:15.712Z,997.51
2022-10-01T05:15:15.668Z,997.50
2022-10-01T05:16:15.687Z,997.57
2022-10-01T05:17:15.601Z,997.50
2022-10-01T05:18:15.545Z,997.55
2022-10-01T05:19:15.504Z,997.56
2022-10-01T05:20:15.469Z,997.53
2022-10-01T05:21:15.423Z,997.56
2022-10-01T05:22:15.383Z,997.56
2022-10-01T05:23:15.354Z,997.55
2022-10-01T05:24:15.303Z,997.59
2022-10-01T05:25:15.260Z,997.55
2022-10-01T05:26:15.217Z,997.44
2022-10-01T05:27:15.179Z,997.44
2022-10-01T05:28:18.379Z,997.55
2022-10-01T05:29:15.109Z,997.65
2022-10-01T05:30:15.060Z,997.60
2022-10-01T05:31:15.071Z,997.60
2022-10-01T05:32:14.977Z,997.71
2022-10-01T05:33:14.945Z,997.59
2022-10-01T05:34:14.892Z,997.61
2022-10-01T05:35:14.867Z,997.60
2022-10-01T05:36:14.813Z,997.55
2022-10-01T05:37:14.794Z,997.67
2022-10-01T05:38:14.731Z,997.63
2022-10-01T05:39:14.689Z,997.63
2022-10-01T05:40:14.649Z,997.57
2022-10-01T05:41:14.609Z,997.49
2022-10-01T05:42:14.568Z,997.53
2022-10-01T05:43:14.541Z,997.64
2022-10-01T05:44:14.498Z,997.67
2022-10-01T05:45:14.446Z,997.66
2022-10-01T05:46:14.452Z,997.61
2022-10-01T05:47:14.362Z,997.60
2022-10-01T05:48:14.323Z,997.63
2022-10-01T05:49:14.284Z,997.63
2022-10-01T05:50:14.255Z,997.68
2022-10-01T05:51:14.206Z,997.74
2022-10-01T05:52:14.164Z,997.77
2022-10-01T05:53:14.137Z,997.77
2022-10-01T05:54:14.080Z,997.74
2022-10-01T05:55:14.039Z,997.76
2022-10-01T05:56:14.009Z,997.76
2022-10-01T05:57:13.957Z,997.79
2022-10-01T05:58:14.052Z,997.79
2022-10-01T05:59:13.875Z,997.80
2022-10-01T06:00:13.841Z,997.83
2022-10-01T06:01:13.820Z,997.81
2022-10-01T06:02:13.840Z,997.84
2022-10-01T06:03:13.808Z,997.81
2022-10-01T06:04:13.674Z,997.82
2022-10-01T06:05:13.633Z,997.87
2022-10-01T06:06:13.600Z,997.89
2022-10-01T06:07:13.568Z,997.89
2022-10-01T06:08:13.512Z,997.86
2022-10-01T06:09:13.567Z,997.87
2022-10-01T06:10:13.432Z,997.88
2022-10-01T06:11:13.388Z,997.92
2022-10-01T06:12:17.654Z,997.90
2022-10-01T06:13:13.321Z,997.94
2022-10-01T06:14:13.272Z,997.92
2022-10-01T06:15:13.227Z,997.93
2022-10-01T06:16:13.206Z,997.93
2022-10-01T06:17:13.145Z,997.96
2022-10-01T06:18:13.119Z,998.00
2022-10-01T06:19:13.067Z,998.08
2022-10-01T06:20:13.026Z,998.10
2022-10-01T06:21:12.983Z,998.09
2022-10-01T06:22:12.945Z,998.08
2022-10-01T06:23:12.904Z,998.08
2022-10-01T06:24:12.879Z,998.10
2022-10-01T06:25:12.835Z,998.13
2022-10-01T06:26:12.785Z,998.14
2022-10-01T06:27:12.741Z,998.13
2022-10-01T06:28:12.732Z,998.14
2022-10-01T06:29:12.661Z,998.22
2022-10-01T06:30:13.643Z,998.23
2022-10-01T06:31:12.674Z,998.19
2022-10-01T06:32:12.543Z,998.19
2022-10-01T06:33:12.500Z,998.18
2022-10-01T06:34:12.456Z,998.18
2022-10-01T06:35:12.418Z,998.20
2022-10-01T06:36:12.397Z,998.19
2022-10-01T06:37:12.339Z,998.22
2022-10-01T06:38:12.300Z,998.19
2022-10-01T06:39:12.304Z,998.16
2022-10-01T06:40:12.213Z,998.15
2022-10-01T06:41:12.176Z,998.19
2022-10-01T06:42:12.149Z,998.18
2022-10-01T06:43:12.129Z,998.16
2022-10-01T06:44:12.055Z,998.15
2022-10-01T06:45:12.015Z,998.17
2022-10-01T06:46:12.096Z,998.18
2022-10-01T06:47:11.940Z,998.12
2022-10-01T06:48:11.907Z,998.09
2022-10-01T06:49:11.855Z,998.14
2022-10-01T06:50:11.815Z,998.16
2022-10-01T06:51:11.777Z,998.15
2022-10-01T06:52:11.732Z,998.16
2022-10-01T06:53:11.697Z,998.14
2022-10-01T06:54:11.663Z,998.16
2022-10-01T06:55:16.338Z,998.14
2022-10-01T06:56:11.573Z,998.13
2022-10-01T06:57:11.533Z,998.15
2022-10-01T06:58:11.494Z,998.16
2022-10-01T06:59:11.470Z,998.14
2022-10-01T07:00:11.411Z,998.15
2022-10-01T07:01:11.456Z,998.17
2022-10-01T07:02:11.360Z,998.14
2022-10-01T07:03:11.292Z,998.16
2022-10-01T07:04:11.250Z,998.20
2022-10-01T07:05:11.224Z,998.16
2022-10-01T07:06:11.172Z,998.16
2022-10-01T07:07:11.131Z,998.19
2022-10-01T07:08:11.094Z,998.18
2022-10-01T07:09:11.057Z,998.23
2022-10-01T07:10:11.012Z,998.25
2022-10-01T07:11:10.986Z,998.25
2022-10-01T07:12:10.933Z,998.28
2022-10-01T07:13:10.891Z,998.23
2022-10-01T07:14:10.858Z,998.19
2022-10-01T07:15:10.810Z,998.27
2022-10-01T07:16:10.811Z,998.28
2022-10-01T07:17:10.742Z,998.28
2022-10-01T07:18:10.690Z,998.29
2022-10-01T07:19:10.658Z,998.34
2022-10-01T07:20:10.612Z,998.35
2022-10-01T07:21:10.579Z,998.32
2022-10-01T07:22:10.543Z,998.37
2022-10-01T07:23:10.505Z,998.39
2022-10-01T07:24:10.452Z,998.40
2022-10-01T07:25:10.414Z,998.42
2022-10-01T07:26:10.377Z,998.41
2022-10-01T07:27:10.334Z,998.41
2022-10-01T07:28:10.327Z,998.36
2022-10-01T07:29:10.255Z,998.41
2022-10-01T07:30:10.214Z,998.37
2022-10-01T07:31:10.174Z,998.42
2022-10-01T07:32:10.153Z,998.42
2022-10-01T07:33:10.095Z,998.46
2022-10-01T07:34:10.068Z,998.44
2022-10-01T07:35:10.016Z,998.46
2022-10-01T07:36:09.977Z,998.48
2022-10-01T07:37:09.934Z,998.49
2022-10-01T07:38:09.898Z,998.51
2022-10-01T07:39:09.858Z,998.49
2022-10-01T07:40:09.828Z,998.50
2022-10-01T07:41:09.778Z,998.56
2022-10-01T07:42:09.738Z,998.55
2022-10-01T07:43:09.699Z,998.60
2022-10-01T07:44:09.660Z,998.58
2022-10-01T07:45:09.621Z,998.66
2022-10-01T07:46:09.610Z,998.66
2022-10-01T07:47:09.551Z,998.67
2022-10-01T07:48:09.503Z,998.71
2022-10-01T07:49:09.462Z,998.70
2022-10-01T07:50:09.422Z,998.70
2022-10-01T07:51:09.384Z,998.72
2022-10-01T07:52:13.134Z,998.75
2022-10-01T07:53:09.315Z,998.76
2022-10-01T07:54:09.262Z,998.80
2022-10-01T07:55:09.224Z,998.79
2022-10-01T07:56:17.447Z,998.81
2022-10-01T07:57:09.152Z,998.80
2022-10-01T07:58:09.108Z,998.84
2022-10-01T07:59:09.076Z,998.83
2022-10-01T08:00:09.024Z,998.88
2022-10-01T08:01:09.035Z,998.92
2022-10-01T08:02:08.981Z,998.94
2022-10-01T08:03:08.923Z,999.00
2022-10-01T08:04:08.866Z,998.98
2022-10-01T08:05:08.836Z,998.92
2022-10-01T08:06:08.796Z,998.99
2022-10-01T08:07:08.748Z,999.02
2022-10-01T08:08:08.770Z,999.01
2022-10-01T08:09:08.672Z,999.05
2022-10-01T08:10:08.655Z,998.99
2022-10-01T08:11:08.591Z,998.96
2022-10-01T08:12:08.554Z,998.98
2022-10-01T08:13:08.514Z,998.92
2022-10-01T08:14:08.479Z,998.88
2022-10-01T08:15:08.447Z,998.89
2022-10-01T08:16:08.447Z,998.89
2022-10-01T08:17:08.359Z,998.90
2022-10-01T08:18:08.347Z,998.91
2022-10-01T08:19:08.280Z,998.92
2022-10-01T08:20:08.241Z,998.97
2022-10-01T08:21:08.218Z,999.02
2022-10-01T08:22:08.179Z,999.11
2022-10-01T08:23:08.133Z,999.16
2022-10-01T08:24:08.100Z,999.10
2022-10-01T08:25:08.048Z,999.11
2022-10-01T08:26:08.010Z,999.13
2022-10-01T08:27:07.989Z,999.12
2022-10-01T08:28:07.984Z,999.07
2022-10-01T08:29:07.896Z,999.08
2022-10-01T08:30:07.859Z,999.10
2022-10-01T08:31:07.825Z,999.10
2022-10-01T08:32:07.820Z,999.10
2022-10-01T08:33:07.748Z,999.12
2022-10-01T08:34:07.701Z,999.14
2022-10-01T08:35:07.663Z,999.15
2022-10-01T08:36:07.730Z,999.13
2022-10-01T08:37:07.585Z,999.15
2022-10-01T08:38:07.577Z,999.19
2022-10-01T08:39:07.528Z,999.25
2022-10-01T08:40:07.499Z,999.25
2022-10-01T08:41:07.436Z,999.33
2022-10-01T08:42:07.415Z,999.27
2022-10-01T08:43:07.361Z,999.33
2022-10-01T08:44:07.313Z,999.34
2022-10-01T08:45:07.291Z,999.34
2022-10-01T08:46:07.269Z,999.36
2022-10-01T08:47:07.202Z,999.33
2022-10-01T08:48:07.160Z,999.37
2022-10-01T08:49:07.121Z,999.35
2022-10-01T08:50:07.082Z,999.38
2022-10-01T08:51:07.054Z,999.42
2022-10-01T08:52:07.003Z,999.42
2022-10-01T08:53:06.973Z,999.47
2022-10-01T08:54:06.930Z,999.48
2022-10-01T08:55:06.888Z,999.47
2022-10-01T08:56:06.849Z,999.44
2022-10-01T08:57:06.821Z,999.42
2022-10-01T08:58:06.771Z,999.42
2022-10-01T08:59:06.737Z,999.46
2022-10-01T09:00:06.697Z,999.45
2022-10-01T09:01:06.741Z,999.40
2022-10-01T09:02:06.625Z,999.47
2022-10-01T09:03:06.592Z,999.49
2022-10-01T09:04:06.573Z,999.50
2022-10-01T09:05:06.508Z,999.57
2022-10-01T09:06:06.467Z,999.56
2022-10-01T09:07:06.440Z,999.52
2022-10-01T09:08:06.385Z,999.53
2022-10-01T09:09:06.351Z,999.52
2022-10-01T09:10:06.309Z,999.55
2022-10-01T09:11:06.273Z,999.58
2022-10-01T09:12:06.246Z,999.48
2022-10-01T09:13:06.216Z,999.51
2022-10-01T09:14:06.157Z,999.50
2022-10-01T09:15:06.128Z,999.47
2022-10-01T09:16:06.114Z,999.53
2022-10-01T09:17:06.047Z,999.51
2022-10-01T09:18:06.001Z,999.50
2022-10-01T09:19:05.974Z,999.47
2022-10-01T09:20:05.927Z,999.49
2022-10-01T09:21:05.887Z,999.49
2022-10-01T09:22:05.847Z,999.56
2022-10-01T09:23:05.812Z,999.58
2022-10-01T09:24:05.778Z,999.56
2022-10-01T09:25:05.762Z,999.58
2022-10-01T09:26:05.697Z,999.60
2022-10-01T09:27:05.657Z,999.66
2022-10-01T09:28:05.686Z,999.66
2022-10-01T09:29:05.583Z,999.65
2022-10-01T09:30:05.546Z,999.65
2022-10-01T09:31:05.516Z,999.64
2022-10-01T09:32:05.517Z,999.63
2022-10-01T09:33:05.430Z,999.65
2022-10-01T09:34:05.393Z,999.66
2022-10-01T09:35:05.350Z,999.63
2022-10-01T09:36:05.328Z,999.64
2022-10-01T09:37:05.273Z,999.66
2022-10-01T09:38:05.230Z,999.70
2022-10-01T09:39:05.207Z,999.71
2022-10-01T09:40:05.170Z,999.68
2022-10-01T09:41:05.164Z,999.71
2022-10-01T09:51:41.286Z,999.91
2022-10-01T09:52:40.796Z,999.88
2022-10-01T09:53:40.757Z,999.94
2022-10-01T09:54:40.710Z,999.94
2022-10-01T09:55:40.668Z,999.98
2022-10-01T09:56:40.681Z,999.95
2022-10-01T09:57:40.594Z,999.95
2022-10-01T09:58:40.552Z,999.93
2022-10-01T09:59:40.523Z,999.95
2022-10-01T10:00:41.180Z,999.87
2022-10-01T10:01:40.457Z,999.88
2022-10-01T10:02:44.638Z,999.89
2022-10-01T10:03:40.430Z,999.92
2022-10-01T10:04:40.320Z,999.88
2022-10-01T10:07:55.825Z,1000.03
2022-10-01T10:08:55.749Z,1000.10
2022-10-01T10:09:55.708Z,1000.12
2022-10-01T10:14:10.464Z,1000.15
2022-10-01T10:15:10.412Z,1000.16
2022-10-01T10:16:10.406Z,1000.16
2022-10-01T10:17:10.349Z,1000.13
2022-10-01T10:18:10.301Z,1000.20
2022-10-01T10:19:10.362Z,1000.19
2022-10-01T10:20:10.223Z,1000.23
2022-10-01T10:21:10.184Z,1000.24
2022-10-01T10:22:10.156Z,1000.20
2022-10-01T10:23:10.122Z,1000.27
2022-10-01T10:24:10.071Z,1000.30
2022-10-01T10:25:10.098Z,1000.23
2022-10-01T10:26:09.994Z,1000.34
2022-10-01T10:27:09.957Z,1000.42
2022-10-01T10:28:10.004Z,1000.42
2022-10-01T10:49:37.815Z,1001.06
2022-10-01T10:50:37.771Z,1001.14
2022-10-01T11:02:33.127Z,1000.82
2022-10-01T11:06:50.379Z,1001.21
2022-10-01T11:11:57.047Z,1000.73
2022-10-01T11:12:57.020Z,1000.66
2022-10-01T11:13:56.955Z,1001.21
2022-10-01T11:14:56.937Z,1001.17
2022-10-01T11:15:56.956Z,1000.69
2022-10-01T11:16:56.851Z,1000.86
2022-10-01T11:17:56.819Z,1000.76
2022-10-01T11:18:56.783Z,1000.80
2022-10-01T11:19:56.756Z,1000.75
2022-10-01T11:20:56.742Z,1000.72
2022-10-01T11:21:56.692Z,1000.70
2022-10-01T11:22:56.650Z,1000.65
2022-10-01T11:23:56.609Z,1000.70
2022-10-01T11:24:56.574Z,1000.67
2022-10-01T11:25:56.546Z,1000.81
2022-10-01T11:26:56.506Z,1000.78
2022-10-01T11:27:56.545Z,1000.75
2022-10-01T11:31:11.111Z,1000.89
2022-10-01T11:33:53.906Z,1001.07
2022-10-01T11:34:53.849Z,1001.11
2022-10-01T11:35:53.838Z,1000.95
2022-10-01T11:36:55.579Z,1000.94
2022-10-01T11:37:53.749Z,1001.20
2022-10-01T11:38:53.761Z,1000.80
2022-10-01T11:40:01.711Z,1001.18
2022-10-01T11:40:53.635Z,1001.22
2022-10-01T11:41:53.600Z,1001.07
2022-10-01T11:42:53.571Z,1001.20
2022-10-01T11:43:53.532Z,1001.21
2022-10-01T11:44:56.332Z,1000.76
2022-10-01T11:50:15.028Z,1001.10
2022-10-01T11:51:14.980Z,1000.90
2022-10-01T11:54:14.669Z,1000.94
2022-10-01T11:55:14.536Z,1001.03
2022-10-01T11:58:23.466Z,1001.29
2022-10-01T11:59:23.429Z,1001.38
2022-10-01T12:00:27.221Z,1001.01
2022-10-01T12:01:23.370Z,1000.99
2022-10-01T12:05:41.232Z,1001.34
2022-10-01T12:09:34.572Z,1001.03
2022-10-01T12:17:46.689Z,1001.51
2022-10-01T12:18:46.681Z,1001.52
2022-10-01T12:19:46.613Z,1001.52
2022-10-01T12:20:46.571Z,1001.49
2022-10-01T12:21:46.533Z,1001.59
2022-10-01T12:22:46.508Z,1001.63
2022-10-01T12:23:46.469Z,1001.70
2022-10-01T12:24:47.374Z,1001.53
2022-10-01T12:25:46.395Z,1001.35
2022-10-01T12:26:46.359Z,1001.37
2022-10-01T12:27:46.373Z,1001.26
2022-10-01T12:28:51.526Z,1001.36
2022-10-01T12:29:46.292Z,1001.33
2022-10-01T12:30:46.236Z,1001.39
2022-10-01T12:31:46.230Z,1001.54
2022-10-01T12:32:46.153Z,1001.61
2022-10-01T12:33:46.121Z,1001.34
2022-10-01T12:34:49.357Z,1001.28
2022-10-01T12:35:46.067Z,1001.30
2022-10-01T12:36:46.020Z,1001.24
2022-10-01T12:37:45.986Z,1001.26
2022-10-01T12:38:45.950Z,1001.33
2022-10-01T12:39:45.934Z,1001.34
2022-10-01T12:40:45.967Z,1001.25
2022-10-01T12:41:45.874Z,1001.29
2022-10-01T12:42:45.809Z,1001.32
2022-10-01T12:43:45.791Z,1001.37
2022-10-01T12:44:45.745Z,1001.38
2022-10-01T12:45:45.721Z,1001.43
2022-10-01T12:46:45.709Z,1001.43
2022-10-01T12:47:45.648Z,1001.43
2022-10-01T12:48:45.593Z,1001.42
2022-10-01T12:49:45.562Z,1001.48
2022-10-01T12:50:45.526Z,1001.48
2022-10-01T12:51:45.493Z,1001.51
2022-10-01T12:52:45.449Z,1001.53
2022-10-01T12:53:45.425Z,1001.60
2022-10-01T12:54:45.378Z,1001.59
2022-10-01T12:55:45.341Z,1001.56
2022-10-01T12:56:45.311Z,1001.59
2022-10-01T12:57:45.266Z,1001.59
2022-10-01T12:58:45.237Z,1001.61
2022-10-01T12:59:45.232Z,1001.58
2022-10-01T13:00:45.197Z,1001.54
2022-10-01T13:01:45.145Z,1001.62
2022-10-01T13:02:45.088Z,1001.59
2022-10-01T13:03:45.058Z,1001.55
2022-10-01T13:04:45.004Z,1001.54
2022-10-01T13:05:44.967Z,1001.50
2022-10-01T13:06:44.929Z,1001.63
2022-10-01T13:07:44.893Z,1001.65
2022-10-01T13:08:44.857Z,1001.73
2022-10-01T13:09:48.820Z,1001.76
2022-10-01T13:10:44.779Z,1001.81
2022-10-01T13:11:44.740Z,1001.79
2022-10-01T13:12:44.703Z,1001.81
2022-10-01T13:13:44.667Z,1001.86
2022-10-01T13:14:44.626Z,1001.87
2022-10-01T13:15:44.697Z,1001.80
2022-10-01T13:16:44.650Z,1001.78
2022-10-01T13:17:44.514Z,1001.79
2022-10-01T13:18:44.479Z,1001.79
2022-10-01T13:19:44.439Z,1001.78
2022-10-01T13:20:44.399Z,1001.79
2022-10-01T13:21:44.372Z,1001.74
2022-10-01T13:22:44.335Z,1001.76
2022-10-01T13:23:44.288Z,1001.75
2022-10-01T13:24:44.249Z,1001.72
2022-10-01T13:25:44.214Z,1001.81
2022-10-01T13:26:44.175Z,1001.80
2022-10-01T13:27:44.200Z,1001.78
2022-10-01T13:28:44.107Z,1001.83
2022-10-01T13:29:44.061Z,1001.90
2022-10-01T13:30:44.023Z,1001.86
2022-10-01T13:31:44.058Z,1001.84
2022-10-01T13:32:43.946Z,1001.86
2022-10-01T13:33:43.919Z,1001.84
2022-10-01T13:34:43.870Z,1001.81
2022-10-01T13:35:43.842Z,1001.84
2022-10-01T13:36:43.800Z,1001.84
2022-10-01T13:37:43.758Z,1001.94
2022-10-01T13:38:43.727Z,1001.95
2022-10-01T13:39:43.684Z,1001.99
2022-10-01T13:40:43.646Z,1002.02